createdAt,value
2019-04-25T00:01:42.518Z,32.55
2019-04-25T00:06:47.881Z,28.92
2019-04-25T00:09:22.770Z,34.65
2019-04-25T00:11:55.554Z,40.80
2019-04-25T00:14:31.358Z,42.50
2019-04-25T00:17:04.600Z,39.90
2019-04-25T00:19:58.398Z,36.65
2019-04-25T00:22:35.672Z,37.28
2019-04-25T00:25:29.479Z,34.85
2019-04-25T00:30:35.748Z,34.10
2019-04-25T00:33:08.487Z,33.80
2019-04-25T00:35:44.486Z,34.05
2019-04-25T00:38:16.689Z,30.85
2019-04-25T00:40:52.030Z,37.53
2019-04-25T00:43:28.046Z,33.98
2019-04-25T00:46:05.496Z,38.33
2019-04-25T00:48:39.041Z,29.40
2019-04-25T00:51:13.163Z,41.23
2019-04-25T00:53:46.113Z,39.00
2019-04-25T00:56:19.602Z,37.50
2019-04-25T00:59:06.926Z,34.60
2019-04-25T01:01:46.428Z,56.35
2019-04-25T01:04:21.812Z,37.70
2019-04-25T01:06:55.028Z,34.03
2019-04-25T01:09:28.839Z,34.85
2019-04-25T01:12:04.111Z,37.55
2019-04-25T01:14:38.089Z,39.27
2019-04-25T01:17:11.672Z,40.52
2019-04-25T01:19:47.869Z,39.25
2019-04-25T01:22:21.162Z,40.25
2019-04-25T01:24:54.994Z,45.50
2019-04-25T01:27:29.286Z,37.53
2019-04-25T01:30:04.299Z,36.70
2019-04-25T01:32:38.253Z,32.85
2019-04-25T01:35:13.974Z,36.75
2019-04-25T01:37:57.281Z,43.35
2019-04-25T01:40:48.180Z,48.95
2019-04-25T01:43:39.338Z,44.27
2019-04-25T01:46:14.800Z,41.65
2019-04-25T01:48:48.572Z,34.75
2019-04-25T01:51:24.011Z,36.08
2019-04-25T01:53:57.538Z,33.95
2019-04-25T01:56:30.749Z,48.70
2019-04-25T01:59:04.185Z,38.00
2019-04-25T02:01:38.774Z,41.90
2019-04-25T02:04:13.233Z,50.45
2019-04-25T02:06:46.475Z,36.25
2019-04-25T02:11:54.733Z,43.28
2019-04-25T02:14:33.643Z,41.75
2019-04-25T02:17:06.810Z,40.20
2019-04-25T02:19:39.564Z,36.85
2019-04-25T02:22:14.430Z,40.98
2019-04-25T02:24:46.907Z,42.48
2019-04-25T02:29:54.563Z,43.35
2019-04-25T02:32:26.685Z,43.08
2019-04-25T02:35:04.474Z,42.95
2019-04-25T02:37:35.804Z,41.23
2019-04-25T02:40:10.274Z,36.23
2019-04-25T02:42:45.292Z,43.08
2019-04-25T02:45:29.470Z,42.35
2019-04-25T02:48:05.705Z,36.85
2019-04-25T02:50:49.075Z,40.80
2019-04-25T02:53:36.538Z,40.25
2019-04-25T02:56:26.069Z,36.38
2019-04-25T02:58:41.487Z,50.35
2019-04-25T03:01:22.312Z,48.02
2019-04-25T03:03:54.316Z,49.80
2019-04-25T03:06:26.851Z,38.92
2019-04-25T03:09:04.019Z,44.88
2019-04-25T03:11:37.473Z,35.33
2019-04-25T03:14:10.499Z,47.67
2019-04-25T03:16:44.908Z,34.23
2019-04-25T03:19:25.925Z,40.35
2019-04-25T03:22:10.069Z,44.40
2019-04-25T03:24:42.067Z,40.85
2019-04-25T03:27:14.951Z,44.88
2019-04-25T03:32:20.278Z,50.17
2019-04-25T03:34:54.900Z,44.13
2019-04-25T03:37:27.947Z,47.35
2019-04-25T03:40:02.087Z,47.80
2019-04-25T03:42:35.277Z,54.13
2019-04-25T03:47:40.188Z,91.08
2019-04-25T03:52:46.618Z,59.90
2019-04-25T03:55:19.965Z,69.05
2019-04-25T03:57:53.939Z,69.53
2019-04-25T04:00:27.136Z,71.82
2019-04-25T04:03:00.899Z,58.68
2019-04-25T04:05:34.575Z,75.78
2019-04-25T04:08:07.782Z,63.98
2019-04-25T04:13:14.605Z,90.38
2019-04-25T04:15:47.624Z,84.37
2019-04-25T04:18:21.945Z,81.20
2019-04-25T04:20:56.674Z,105.70
2019-04-25T04:23:31.198Z,108.12
2019-04-25T04:26:05.353Z,74.62
2019-04-25T04:28:39.408Z,63.52
2019-04-25T04:31:12.596Z,52.58
2019-04-25T04:33:46.611Z,67.30
2019-04-25T04:38:53.840Z,86.37
2019-04-25T04:41:26.250Z,71.60
2019-04-25T04:43:59.331Z,65.50
2019-04-25T04:49:04.453Z,52.83
2019-04-25T04:51:38.010Z,63.23
2019-04-25T04:54:11.217Z,53.20
2019-04-25T04:56:45.892Z,58.80
2019-04-25T04:59:23.763Z,64.05
2019-04-25T05:02:08.139Z,60.83
2019-04-25T05:05:00.589Z,60.73
2019-04-25T05:07:45.085Z,61.20
2019-04-25T05:10:21.319Z,63.13
2019-04-25T05:12:56.543Z,64.82
2019-04-25T05:15:33.447Z,70.28
2019-04-25T05:18:06.825Z,57.17
2019-04-25T05:20:39.747Z,68.02
2019-04-25T05:23:13.425Z,45.80
2019-04-25T05:25:47.145Z,51.65
2019-04-25T05:28:19.898Z,65.03
2019-04-25T05:33:26.797Z,54.38
2019-04-25T05:36:00.064Z,52.78
2019-04-25T05:38:33.249Z,54.30
2019-04-25T05:41:07.406Z,60.33
2019-04-25T05:43:41.582Z,52.67
2019-04-25T05:46:15.263Z,59.83
2019-04-25T05:48:47.948Z,63.17
2019-04-25T05:51:20.546Z,54.13
2019-04-25T05:56:24.664Z,57.20
2019-04-25T05:58:59.001Z,60.60
2019-04-25T06:01:31.571Z,54.18
2019-04-25T06:04:05.388Z,58.85
2019-04-25T06:06:38.858Z,54.08
2019-04-25T06:09:23.745Z,51.80
2019-04-25T06:12:13.999Z,57.23
2019-04-25T06:14:52.910Z,60.90
2019-04-25T06:17:36.857Z,55.63
2019-04-25T06:20:11.174Z,49.80
2019-04-25T06:22:56.840Z,60.78
2019-04-25T06:25:34.987Z,56.23
2019-04-25T06:28:08.326Z,61.10
2019-04-25T06:30:41.824Z,49.70
2019-04-25T06:33:14.177Z,56.15
2019-04-25T06:35:48.289Z,42.48
2019-04-25T06:40:53.601Z,65.20
2019-04-25T06:43:26.752Z,65.52
2019-04-25T06:46:14.070Z,57.17
2019-04-25T06:49:03.544Z,56.13
2019-04-25T06:51:54.451Z,54.40
2019-04-25T06:54:28.142Z,51.10
2019-04-25T06:57:02.357Z,50.25
2019-04-25T06:59:40.986Z,50.40
2019-04-25T07:02:11.415Z,43.45
2019-04-25T07:07:18.847Z,48.87
2019-04-25T07:09:53.484Z,45.17
2019-04-25T07:12:28.939Z,54.60
2019-04-25T07:15:01.845Z,46.68
2019-04-25T07:17:35.875Z,49.03
2019-04-25T07:20:11.055Z,45.67
2019-04-25T07:22:43.781Z,52.53
2019-04-25T07:28:05.954Z,47.33
2019-04-25T07:30:54.498Z,44.18
2019-04-25T07:33:29.519Z,45.28
2019-04-25T07:36:04.122Z,46.05
2019-04-25T07:38:37.047Z,48.68
2019-04-25T07:41:14.063Z,53.75
2019-04-25T07:43:45.272Z,51.45
2019-04-25T07:48:49.512Z,53.40
2019-04-25T07:51:23.741Z,50.15
2019-04-25T07:53:56.541Z,42.15
2019-04-25T07:56:29.414Z,63.45
2019-04-25T08:01:37.275Z,49.08
2019-04-25T08:04:08.859Z,79.37
2019-04-25T08:06:41.793Z,53.68
2019-04-25T08:09:16.681Z,45.83
2019-04-25T08:11:49.906Z,51.28
2019-04-25T08:14:43.718Z,43.23
2019-04-25T08:17:18.046Z,43.55
2019-04-25T08:19:51.071Z,48.58
2019-04-25T08:22:24.197Z,71.92
2019-04-25T08:24:58.104Z,47.20
2019-04-25T08:27:33.469Z,63.05
2019-04-25T08:30:06.651Z,44.25
2019-04-25T08:32:39.850Z,110.17
2019-04-25T08:35:13.996Z,61.08
2019-04-25T08:37:47.920Z,56.25
2019-04-25T08:40:21.307Z,47.35
2019-04-25T08:42:53.926Z,73.47
2019-04-25T08:45:26.650Z,45.67
2019-04-25T08:50:40.823Z,99.10
2019-04-25T08:53:13.685Z,58.55
2019-04-25T08:55:57.016Z,50.50
2019-04-25T08:58:48.467Z,49.40
2019-04-25T09:01:25.243Z,110.85
2019-04-25T09:04:04.693Z,34.53
2019-04-25T09:06:37.550Z,50.98
2019-04-25T09:09:11.334Z,58.48
2019-04-25T09:11:46.919Z,68.78
2019-04-25T09:14:18.692Z,114.42
2019-04-25T09:16:53.245Z,65.10
2019-04-25T09:19:26.470Z,77.27
2019-04-25T09:21:59.192Z,62.50
2019-04-25T09:27:04.451Z,38.25
2019-04-25T09:29:37.168Z,48.83
2019-04-25T09:32:10.171Z,37.53
2019-04-25T09:34:44.701Z,87.02
2019-04-25T09:37:17.366Z,106.55
2019-04-25T09:40:04.311Z,61.88
2019-04-25T09:42:47.531Z,66.90
2019-04-25T09:45:27.013Z,48.90
2019-04-25T09:48:01.033Z,44.90
2019-04-25T09:50:35.657Z,55.25
2019-04-25T09:53:20.755Z,49.53
2019-04-25T09:55:56.391Z,41.53
2019-04-25T09:58:33.906Z,44.67
2019-04-25T10:01:11.953Z,53.42
2019-04-25T10:03:45.743Z,46.33
2019-04-25T10:06:23.277Z,65.20
2019-04-25T10:08:56.959Z,66.50
2019-04-25T10:11:29.817Z,58.92
2019-04-25T10:14:29.860Z,42.10
2019-04-25T10:17:03.876Z,53.25
2019-04-25T10:19:36.945Z,51.10
2019-04-25T10:22:10.507Z,76.17
2019-04-25T10:24:43.230Z,45.63
2019-04-25T10:27:16.410Z,73.20
2019-04-25T10:29:53.698Z,46.55
2019-04-25T10:32:24.490Z,46.80
2019-04-25T10:34:57.705Z,46.58
2019-04-25T10:37:31.398Z,46.70
2019-04-25T10:42:38.919Z,74.95
2019-04-25T10:45:21.277Z,40.73
2019-04-25T10:47:46.770Z,43.30
2019-04-25T10:50:19.097Z,46.00
2019-04-25T10:55:26.165Z,63.48
2019-04-25T10:57:59.797Z,42.83
2019-04-25T11:00:38.293Z,60.28
2019-04-25T11:03:26.429Z,43.25
2019-04-25T11:05:59.432Z,48.02
2019-04-25T11:08:31.903Z,35.80
2019-04-25T11:11:04.308Z,35.55
2019-04-25T11:13:37.179Z,36.33
2019-04-25T11:16:10.141Z,38.38
2019-04-25T11:18:46.350Z,40.15
2019-04-25T11:21:19.202Z,38.23
2019-04-25T11:23:54.019Z,40.10
2019-04-25T11:26:26.122Z,42.03
2019-04-25T11:28:58.608Z,49.05
2019-04-25T11:31:33.726Z,38.33
2019-04-25T11:34:07.199Z,44.42
2019-04-25T11:36:39.725Z,50.17
2019-04-25T11:39:31.029Z,57.75
2019-04-25T11:42:04.271Z,35.33
2019-04-25T11:44:37.052Z,38.98
2019-04-25T11:49:43.114Z,43.80
2019-04-25T11:52:26.931Z,37.40
2019-04-25T11:54:50.408Z,56.77
2019-04-25T11:57:23.388Z,69.05
2019-04-25T11:59:56.627Z,69.42
2019-04-25T12:05:00.634Z,46.42
2019-04-25T12:07:34.233Z,68.28
2019-04-25T12:10:09.637Z,44.08
2019-04-25T12:12:44.235Z,47.65
2019-04-25T12:15:16.300Z,50.98
2019-04-25T12:17:49.489Z,74.75
2019-04-25T12:20:22.055Z,42.70
2019-04-25T12:23:06.265Z,74.32
2019-04-25T12:25:28.856Z,59.25
2019-04-25T12:28:02.411Z,53.33
2019-04-25T12:30:39.967Z,66.80
2019-04-25T12:33:19.173Z,103.55
2019-04-25T12:35:43.828Z,104.78
2019-04-25T12:38:16.676Z,84.13
2019-04-25T12:43:23.911Z,49.80
2019-04-25T12:45:59.268Z,44.83
2019-04-25T12:48:31.901Z,36.73
2019-04-25T12:51:05.005Z,56.20
2019-04-25T12:56:09.938Z,60.12
2019-04-25T12:58:43.478Z,47.83
2019-04-25T13:01:17.585Z,62.73
2019-04-25T13:03:50.868Z,76.70
2019-04-25T13:06:23.876Z,47.83
2019-04-25T13:08:56.796Z,69.85
2019-04-25T13:11:29.624Z,50.98
2019-04-25T13:14:02.742Z,54.23
2019-04-25T13:16:35.757Z,42.62
2019-04-25T13:19:16.760Z,40.43
2019-04-25T13:21:43.309Z,40.03
2019-04-25T13:24:15.945Z,42.35
2019-04-25T13:26:50.197Z,55.17
2019-04-25T13:29:27.142Z,45.65
2019-04-25T13:32:07.618Z,41.88
2019-04-25T13:34:47.610Z,53.40
2019-04-25T13:37:20.386Z,50.63
2019-04-25T13:42:24.968Z,48.13
2019-04-25T13:44:57.502Z,52.95
2019-04-25T13:50:02.620Z,37.95
2019-04-25T13:52:37.121Z,32.60
2019-04-25T13:55:09.650Z,34.40
2019-04-25T13:57:45.833Z,32.90
2019-04-25T14:00:20.299Z,29.90
2019-04-25T14:02:53.226Z,35.98
2019-04-25T14:05:26.563Z,34.15
2019-04-25T14:07:59.538Z,36.45
2019-04-25T14:10:32.467Z,43.10
2019-04-25T14:13:07.501Z,40.03
2019-04-25T14:15:43.121Z,43.85
2019-04-25T14:18:32.987Z,37.08
2019-04-25T14:21:09.738Z,33.02
2019-04-25T14:23:44.261Z,50.28
2019-04-25T14:26:18.084Z,47.48
2019-04-25T14:28:50.578Z,49.27
2019-04-25T14:31:41.049Z,33.53
2019-04-25T14:33:58.291Z,41.42
2019-04-25T14:36:33.210Z,47.58
2019-04-25T14:39:06.818Z,38.38
2019-04-25T14:41:41.037Z,46.68
2019-04-25T14:44:14.010Z,37.83
2019-04-25T14:46:46.580Z,36.03
2019-04-25T14:51:50.580Z,39.33
2019-04-25T14:54:42.697Z,41.90
2019-04-25T14:57:23.112Z,42.45
2019-04-25T14:59:56.960Z,31.30
2019-04-25T15:02:31.392Z,38.17
2019-04-25T15:05:04.961Z,35.05
2019-04-25T15:07:37.732Z,35.65
2019-04-25T15:10:11.223Z,35.52
2019-04-25T15:12:46.568Z,36.05
2019-04-25T15:15:18.999Z,35.43
2019-04-25T15:17:51.872Z,31.02
2019-04-25T15:20:24.829Z,33.98
2019-04-25T15:22:57.563Z,32.13
2019-04-25T15:25:30.117Z,31.40
2019-04-25T15:28:07.168Z,29.57
2019-04-25T15:30:40.669Z,35.85
2019-04-25T15:33:15.485Z,28.95
2019-04-25T15:35:49.550Z,33.83
2019-04-25T15:38:35.684Z,34.40
2019-04-25T15:41:12.878Z,32.10
2019-04-25T15:44:03.317Z,28.47
2019-04-25T15:46:37.397Z,29.90
2019-04-25T15:49:10.528Z,30.25
2019-04-25T15:51:43.094Z,31.52
2019-04-25T15:54:15.868Z,34.95
2019-04-25T15:56:48.406Z,36.85
2019-04-25T15:59:21.221Z,29.85
2019-04-25T16:04:26.695Z,30.45
2019-04-25T16:06:59.937Z,42.15
2019-04-25T16:09:32.479Z,30.75
2019-04-25T16:12:05.217Z,34.40
2019-04-25T16:14:39.216Z,36.35
2019-04-25T16:17:12.941Z,36.85
2019-04-25T16:19:45.559Z,41.98
2019-04-25T16:22:18.335Z,36.95
2019-04-25T16:24:51.723Z,42.45
2019-04-25T16:27:24.888Z,39.63
2019-04-25T16:32:30.822Z,34.38
2019-04-25T16:35:03.648Z,41.02
2019-04-25T16:37:36.879Z,37.80
2019-04-25T16:40:09.499Z,38.17
2019-04-25T16:42:41.917Z,35.48
2019-04-25T16:45:14.412Z,75.92
2019-04-25T16:47:47.217Z,157.67
2019-04-25T16:52:51.583Z,38.90
2019-04-25T16:55:24.401Z,32.78
2019-04-25T16:57:56.740Z,36.15
2019-04-25T17:00:45.634Z,29.52
2019-04-25T17:03:19.245Z,35.08
2019-04-25T17:05:52.200Z,34.55
2019-04-25T17:08:25.542Z,37.95
2019-04-25T17:10:59.129Z,36.80
2019-04-25T17:13:33.726Z,34.18
2019-04-25T17:16:24.385Z,36.38
2019-04-25T17:19:01.214Z,37.35
2019-04-25T17:21:34.935Z,30.30
2019-04-25T17:24:07.680Z,33.35
2019-04-25T17:26:40.205Z,34.08
2019-04-25T17:29:13.982Z,32.63
2019-04-25T17:31:51.524Z,27.77
2019-04-25T17:34:29.493Z,28.95
2019-04-25T17:37:15.976Z,26.97
2019-04-25T17:39:49.865Z,34.05
2019-04-25T17:42:22.830Z,27.25
2019-04-25T17:44:55.442Z,26.90
2019-04-25T17:47:27.955Z,28.73
2019-04-25T17:50:00.409Z,30.45
2019-04-25T17:52:34.053Z,33.05
2019-04-25T17:55:07.333Z,34.33
2019-04-25T17:57:39.988Z,26.73
2019-04-25T18:02:45.308Z,29.43
2019-04-25T18:05:17.765Z,27.65
2019-04-25T18:07:51.850Z,28.38
2019-04-25T18:10:25.013Z,31.42
2019-04-25T18:15:29.992Z,28.30
2019-04-25T18:18:03.793Z,27.65
2019-04-25T18:20:38.854Z,27.60
2019-04-25T18:23:28.840Z,34.92
2019-04-25T18:26:06.006Z,26.85
2019-04-25T18:28:50.012Z,22.17
2019-04-25T18:31:23.289Z,27.93
2019-04-25T18:33:57.422Z,34.73
2019-04-25T18:36:35.023Z,28.38
2019-04-25T18:39:15.970Z,25.68
2019-04-25T18:41:53.021Z,27.62
2019-04-25T18:44:26.412Z,31.48
2019-04-25T18:46:59.335Z,26.85
2019-04-25T18:49:31.973Z,34.45
2019-04-25T18:52:08.616Z,37.13
2019-04-25T18:54:58.691Z,33.40
2019-04-25T18:57:37.413Z,30.48
2019-04-25T19:00:20.915Z,29.98
2019-04-25T19:03:07.352Z,27.55
2019-04-25T19:05:45.096Z,30.65
2019-04-25T19:08:17.587Z,35.15
2019-04-25T19:10:50.098Z,29.57
2019-04-25T19:13:23.565Z,32.58
2019-04-25T19:15:56.769Z,29.80
2019-04-25T19:18:29.084Z,47.48
2019-04-25T19:21:01.838Z,50.85
2019-04-25T19:23:55.137Z,40.58
2019-04-25T19:26:28.854Z,44.10
2019-04-25T19:29:02.194Z,40.70
2019-04-25T19:31:36.035Z,41.63
2019-04-25T19:34:09.315Z,58.75
2019-04-25T19:36:42.699Z,41.77
2019-04-25T19:39:15.992Z,41.30
2019-04-25T19:44:25.344Z,40.85
2019-04-25T19:46:57.688Z,41.37
2019-04-25T19:49:30.623Z,38.30
2019-04-25T19:52:03.580Z,33.40
2019-04-25T19:54:36.597Z,38.30
2019-04-25T19:59:40.807Z,38.65
2019-04-25T20:02:15.058Z,37.73
2019-04-25T20:04:49.489Z,43.83
2019-04-25T20:07:26.352Z,35.90
2019-04-25T20:10:15.349Z,26.42
2019-04-25T20:12:51.792Z,43.55
2019-04-25T20:15:24.664Z,34.03
2019-04-25T20:17:57.090Z,31.97
2019-04-25T20:20:29.484Z,37.70
2019-04-25T20:23:02.271Z,35.23
2019-04-25T20:25:34.786Z,43.10
2019-04-25T20:28:07.534Z,37.65
2019-04-25T20:30:40.500Z,64.30
2019-04-25T20:33:13.584Z,48.85
2019-04-25T20:35:47.537Z,34.38
2019-04-25T20:38:19.992Z,35.33
2019-04-25T20:40:53.848Z,31.20
2019-04-25T20:43:27.200Z,32.30
2019-04-25T20:46:00.267Z,26.97
2019-04-25T20:48:33.010Z,28.90
2019-04-25T20:51:05.864Z,27.90
2019-04-25T20:53:39.082Z,31.50
2019-04-25T20:56:11.972Z,30.10
2019-04-25T21:01:16.089Z,33.55
2019-04-25T21:03:49.814Z,28.62
2019-04-25T21:06:30.780Z,44.80
2019-04-25T21:09:03.710Z,39.83
2019-04-25T21:11:38.047Z,30.80
2019-04-25T21:16:54.222Z,27.17
2019-04-25T21:19:28.467Z,32.45
2019-04-25T21:22:01.148Z,36.28
2019-04-25T21:24:34.286Z,32.40
2019-04-25T21:27:06.976Z,33.50
2019-04-25T21:29:39.403Z,37.28
2019-04-25T21:32:11.888Z,34.35
2019-04-25T21:34:44.385Z,38.67
2019-04-25T21:37:17.190Z,29.98
2019-04-25T21:42:42.929Z,36.80
2019-04-25T21:45:15.554Z,32.78
2019-04-25T21:47:48.469Z,30.17
2019-04-25T21:52:53.123Z,28.27
2019-04-25T21:55:26.682Z,36.98
2019-04-25T21:58:00.076Z,36.77
2019-04-25T22:00:50.103Z,31.27
2019-04-25T22:03:25.768Z,39.98
2019-04-25T22:05:58.645Z,34.38
2019-04-25T22:08:31.501Z,34.55
2019-04-25T22:11:03.845Z,36.00
2019-04-25T22:13:36.360Z,47.98
2019-04-25T22:16:08.864Z,46.02
2019-04-25T22:18:41.755Z,38.30
2019-04-25T22:21:14.552Z,34.15
2019-04-25T22:26:18.493Z,41.63
2019-04-25T22:28:51.796Z,43.90
2019-04-25T22:31:25.487Z,30.02
2019-04-25T22:34:02.790Z,36.20
2019-04-25T22:36:36.109Z,34.18
2019-04-25T22:39:12.917Z,35.10
2019-04-25T22:41:48.461Z,38.80
2019-04-25T22:44:22.458Z,37.13
2019-04-25T22:46:55.738Z,37.08
2019-04-25T22:49:28.304Z,37.40
2019-04-25T22:52:01.754Z,37.03
2019-04-25T22:54:35.496Z,34.05
2019-04-25T22:57:08.453Z,38.23
2019-04-25T22:59:41.519Z,46.08
2019-04-25T23:02:24.184Z,38.53
2019-04-25T23:07:37.195Z,33.18
2019-04-25T23:10:10.661Z,38.67
2019-04-25T23:12:44.113Z,35.75
2019-04-25T23:15:16.738Z,37.85
2019-04-25T23:20:22.154Z,43.17
2019-04-25T23:22:54.557Z,42.85
2019-04-25T23:25:28.306Z,38.00
2019-04-25T23:28:02.329Z,43.85
2019-04-25T23:30:37.989Z,44.90
2019-04-25T23:33:11.368Z,37.40
2019-04-25T23:35:45.321Z,34.27
2019-04-25T23:38:18.661Z,36.20
2019-04-25T23:40:51.466Z,32.05
2019-04-25T23:45:55.738Z,22.73
2019-04-25T23:48:28.437Z,24.87
2019-04-25T23:51:00.826Z,28.83
2019-04-25T23:53:33.591Z,27.48
2019-04-25T23:56:06.787Z,32.70
2019-04-25T23:58:40.197Z,33.20
